Time;durP1;ratioP1;P1;durP2;ratioP2;P2;SDS_P1;SDS_P2;PMS_P1;PMS_P2;Temp;Humidity;BMP_temperature;BMP_pressure;BME280_temperature;BME280_humidity;BME280_pressure;Samples;Min_cycle;Max_cycle;Signal;HPM_P1;HPM_P2
2023/07/10 00:01:28;;;;;;;33.97;19.30;;;19.30;99.90;;;;;;6127885;23;20021;-70
2023/07/10 00:03:54;;;;;;;26.88;17.20;;;19.30;99.90;;;;;;6126954;23;20032;-70
2023/07/10 00:06:20;;;;;;;29.52;19.23;;;19.30;99.90;;;;;;6128108;23;20025;-70
2023/07/10 00:08:46;;;;;;;30.70;19.38;;;19.20;99.90;;;;;;6124850;23;20399;-70
2023/07/10 00:11:30;;;;;;;27.60;18.25;;;19.20;99.90;;;;;;6101065;23;20076;-70
2023/07/10 00:13:56;;;;;;;23.65;17.48;;;19.20;99.90;;;;;;6127266;23;20089;-70
2023/07/10 00:16:24;;;;;;;35.05;19.60;;;19.20;99.90;;;;;;6125001;23;20439;-70
2023/07/10 00:18:51;;;;;;;26.55;18.88;;;19.10;99.90;;;;;;6127214;23;20026;-70
2023/07/10 00:21:19;;;;;;;27.10;18.45;;;19.10;99.90;;;;;;6124417;23;20022;-71
2023/07/10 00:23:45;;;;;;;30.00;19.50;;;19.10;99.90;;;;;;6127722;23;20509;-71
2023/07/10 00:26:23;;;;;;;39.30;20.88;;;19.00;99.90;;;;;;6124398;23;20018;-70
2023/07/10 00:28:51;;;;;;;32.50;19.45;;;19.00;99.90;;;;;;6126110;23;20475;-71
2023/07/10 00:31:18;;;;;;;28.95;18.30;;;19.00;99.90;;;;;;6127594;23;20022;-70
2023/07/10 00:33:47;;;;;;;32.05;19.77;;;19.00;99.90;;;;;;6124423;23;20062;-71
2023/07/10 00:36:41;;;;;;;30.33;19.52;;;19.00;99.90;;;;;;6126025;23;20045;-70
2023/07/10 00:39:17;;;;;;;31.48;20.23;;;19.00;99.90;;;;;;6126628;23;20073;-70
2023/07/10 00:41:45;;;;;;;28.80;20.45;;;18.90;99.90;;;;;;6125808;23;20460;-70
2023/07/10 00:44:12;;;;;;;33.25;21.90;;;18.90;99.90;;;;;;6100899;23;20033;-71
2023/07/10 00:47:28;;;;;;;33.60;20.63;;;18.90;99.90;;;;;;6099823;23;20018;-70
2023/07/10 00:50:05;;;;;;;33.70;21.88;;;18.90;99.90;;;;;;6076112;23;20060;-71
2023/07/10 00:52:41;;;;;;;36.15;21.40;;;18.80;99.90;;;;;;6100757;23;20069;-70
2023/07/10 00:55:28;;;;;;;31.48;20.98;;;18.90;99.90;;;;;;6100067;23;20383;-70
2023/07/10 00:58:18;;;;;;;27.50;20.95;;;18.90;99.90;;;;;;6102164;23;20029;-70
2023/07/10 01:01:05;;;;;;;25.98;19.42;;;18.90;99.90;;;;;;6101096;23;20101;-70
2023/07/10 01:03:31;;;;;;;29.90;18.33;;;18.90;99.90;;;;;;6100378;23;20125;-71
2023/07/10 01:06:00;;;;;;;28.63;19.42;;;18.90;99.90;;;;;;6101612;23;20026;-71
2023/07/10 01:08:27;;;;;;;27.10;19.00;;;18.90;99.90;;;;;;6075838;23;20069;-71
2023/07/10 01:10:52;;;;;;;25.88;19.73;;;18.80;99.90;;;;;;6101842;23;20035;-71
2023/07/10 01:13:18;;;;;;;24.38;18.73;;;18.90;99.90;;;;;;6100602;23;20348;-71
2023/07/10 01:15:44;;;;;;;25.65;18.20;;;18.90;99.90;;;;;;6126768;23;20026;-71
2023/07/10 01:18:11;;;;;;;27.20;18.05;;;18.90;99.90;;;;;;6126703;23;20049;-71
2023/07/10 01:20:47;;;;;;;33.60;19.67;;;18.90;99.90;;;;;;6125853;23;20060;-71
2023/07/10 01:23:13;;;;;;;24.13;18.52;;;18.90;99.90;;;;;;6077152;23;20022;-71
2023/07/10 01:25:52;;;;;;;23.73;17.55;;;19.00;99.90;;;;;;6075691;23;20353;-71
2023/07/10 01:28:20;;;;;;;30.40;19.02;;;19.00;99.90;;;;;;6102927;23;20022;-71
2023/07/10 01:30:49;;;;;;;25.23;19.35;;;18.90;99.90;;;;;;6101751;23;20401;-70
2023/07/10 01:33:21;;;;;;;26.23;17.63;;;19.00;99.90;;;;;;6127875;23;20033;-70
2023/07/10 01:35:51;;;;;;;25.17;18.83;;;19.00;99.90;;;;;;6055047;23;20036;-71
2023/07/10 01:38:17;;;;;;;24.55;19.05;;;19.00;99.90;;;;;;6127844;23;20018;-71
2023/07/10 01:40:52;;;;;;;30.08;19.63;;;19.00;99.90;;;;;;6103115;23;20028;-71
2023/07/10 01:43:18;;;;;;;22.80;18.33;;;19.00;99.90;;;;;;6128235;23;20022;-70
2023/07/10 01:45:47;;;;;;;22.48;18.60;;;18.90;99.90;;;;;;6102139;23;20141;-70
2023/07/10 01:48:16;;;;;;;29.75;21.15;;;19.00;99.90;;;;;;6128285;23;20013;-70
2023/07/10 01:50:42;;;;;;;32.30;22.50;;;19.00;99.90;;;;;;6127608;23;20022;-70
2023/07/10 01:53:10;;;;;;;26.00;19.92;;;19.00;99.90;;;;;;6103156;23;20073;-70
2023/07/10 01:55:45;;;;;;;28.67;20.73;;;19.00;99.90;;;;;;6125866;23;20018;-70
2023/07/10 01:58:12;;;;;;;33.15;24.20;;;19.00;99.90;;;;;;6128537;23;20176;-71
2023/07/10 02:00:40;;;;;;;33.63;24.55;;;19.00;99.90;;;;;;6128335;23;20021;-71
2023/07/10 02:03:07;;;;;;;28.52;23.13;;;19.00;99.90;;;;;;6101533;23;20352;-71
2023/07/10 02:05:33;;;;;;;39.40;27.08;;;19.00;99.90;;;;;;6128197;23;20019;-71
2023/07/10 02:07:58;;;;;;;39.17;28.00;;;19.00;99.90;;;;;;6077474;23;20100;-71
2023/07/10 02:10:24;;;;;;;44.25;27.35;;;19.00;99.90;;;;;;6126932;23;20511;-71
2023/07/10 02:12:50;;;;;;;41.70;28.92;;;18.90;99.90;;;;;;6125747;23;20293;-70
2023/07/10 02:15:16;;;;;;;37.50;26.63;;;18.90;99.90;;;;;;6078791;23;20040;-71
2023/07/10 02:17:41;;;;;;;41.38;28.48;;;18.90;99.90;;;;;;6128291;23;20029;-70
2023/07/10 02:20:07;;;;;;;41.03;29.05;;;18.90;99.90;;;;;;6127349;23;20104;-71
2023/07/10 02:22:33;;;;;;;38.13;26.80;;;18.90;99.90;;;;;;6128074;23;20022;-70
2023/07/10 02:24:59;;;;;;;42.80;29.85;;;18.80;99.90;;;;;;6125704;23;20102;-70
2023/07/10 02:27:24;;;;;;;44.50;28.15;;;18.80;99.90;;;;;;6126965;23;20053;-70
2023/07/10 02:29:50;;;;;;;37.63;27.42;;;18.80;99.90;;;;;;6127194;23;20065;-71
2023/07/10 02:32:16;;;;;;;44.90;31.25;;;18.80;99.90;;;;;;6128643;23;20022;-71
2023/07/10 02:34:41;;;;;;;38.90;27.00;;;18.80;99.90;;;;;;6101119;23;20069;-70
2023/07/10 02:37:07;;;;;;;40.92;26.80;;;18.90;99.90;;;;;;6126065;23;20026;-71
2023/07/10 02:39:33;;;;;;;43.67;28.52;;;18.80;99.90;;;;;;6126353;23;20425;-71
2023/07/10 02:41:58;;;;;;;37.92;26.15;;;18.90;99.90;;;;;;6125510;23;20144;-70
2023/07/10 02:44:24;;;;;;;37.78;27.17;;;18.90;99.90;;;;;;6128361;23;20032;-71
2023/07/10 02:46:50;;;;;;;34.45;27.13;;;18.90;99.90;;;;;;6077101;23;20026;-71
2023/07/10 02:49:15;;;;;;;40.35;29.77;;;18.90;99.90;;;;;;6102529;23;20010;-70
2023/07/10 02:51:41;;;;;;;42.78;29.42;;;18.90;99.90;;;;;;6125928;23;20032;-70
2023/07/10 02:54:12;;;;;;;28.75;24.02;;;18.90;99.90;;;;;;6078059;23;20097;-70
2023/07/10 02:56:37;;;;;;;42.28;29.63;;;18.90;99.90;;;;;;6126551;23;20021;-71
2023/07/10 02:59:03;;;;;;;38.83;28.73;;;18.90;99.90;;;;;;6127068;23;20068;-71
2023/07/10 03:01:29;;;;;;;47.00;30.92;;;18.80;99.90;;;;;;6128054;23;20045;-70
2023/07/10 03:03:54;;;;;;;47.38;29.38;;;18.80;99.90;;;;;;6125424;23;20050;-71
2023/07/10 03:06:23;;;;;;;39.72;29.10;;;18.70;99.90;;;;;;6129232;23;20088;-71
2023/07/10 03:08:48;;;;;;;39.00;28.52;;;18.70;99.90;;;;;;6125581;23;20076;-70
2023/07/10 03:11:16;;;;;;;45.28;29.17;;;18.60;99.90;;;;;;6101726;23;20132;-70
2023/07/10 03:13:42;;;;;;;39.28;28.98;;;18.60;99.90;;;;;;6125989;23;20384;-70
2023/07/10 03:16:11;;;;;;;43.90;30.40;;;18.60;99.90;;;;;;6125519;23;20024;-70
2023/07/10 03:18:38;;;;;;;37.50;27.65;;;18.60;99.90;;;;;;6126306;23;20090;-70
2023/07/10 03:21:04;;;;;;;33.47;26.70;;;18.60;99.90;;;;;;6126915;23;20051;-70
2023/07/10 03:23:30;;;;;;;36.42;27.45;;;18.60;99.90;;;;;;6129168;23;20018;-70
2023/07/10 03:25:56;;;;;;;35.47;25.60;;;18.60;99.90;;;;;;6101151;23;20874;-71
2023/07/10 03:28:22;;;;;;;29.05;24.48;;;18.60;99.90;;;;;;6125813;23;20058;-71
2023/07/10 03:30:48;;;;;;;32.65;24.35;;;18.60;99.90;;;;;;6127282;23;20066;-71
2023/07/10 03:33:16;;;;;;;29.77;24.73;;;18.60;99.90;;;;;;6124866;23;20021;-71
2023/07/10 03:35:42;;;;;;;29.17;23.33;;;18.60;99.90;;;;;;6126041;23;20464;-70
2023/07/10 03:38:09;;;;;;;29.45;24.15;;;18.60;99.90;;;;;;6124592;23;20014;-71
2023/07/10 03:40:35;;;;;;;29.10;23.67;;;18.60;99.90;;;;;;6127437;23;20032;-70
2023/07/10 03:43:01;;;;;;;33.55;26.30;;;18.70;99.90;;;;;;6076206;23;20033;-70
2023/07/10 03:45:29;;;;;;;40.63;27.33;;;18.70;99.90;;;;;;6100901;23;20018;-71
2023/07/10 03:47:55;;;;;;;37.63;26.45;;;18.60;99.90;;;;;;6101102;23;20024;-71
2023/07/10 03:50:20;;;;;;;31.55;24.95;;;18.60;99.90;;;;;;6100145;23;20057;-71
2023/07/10 03:52:46;;;;;;;41.45;28.15;;;18.60;99.90;;;;;;6077234;23;20068;-71
2023/07/10 03:55:12;;;;;;;34.63;25.70;;;18.60;99.90;;;;;;6028609;23;20022;-71
2023/07/10 03:57:37;;;;;;;34.50;25.30;;;18.60;99.90;;;;;;6101791;23;20025;-71
2023/07/10 04:00:05;;;;;;;32.55;25.58;;;18.60;99.90;;;;;;6103366;23;20045;-71
2023/07/10 04:02:31;;;;;;;38.28;28.85;;;18.60;99.90;;;;;;6103472;23;20060;-71
2023/07/10 04:04:56;;;;;;;38.30;28.90;;;18.60;99.90;;;;;;6100905;23;20022;-71
2023/07/10 04:07:22;;;;;;;33.05;26.52;;;18.60;99.90;;;;;;6100627;23;20022;-71
2023/07/10 04:09:50;;;;;;;36.95;28.55;;;18.60;99.90;;;;;;6076721;23;20014;-71
2023/07/10 04:12:16;;;;;;;36.63;27.83;;;18.60;99.90;;;;;;6100429;23;20030;-71
2023/07/10 04:14:41;;;;;;;37.90;27.70;;;18.70;99.90;;;;;;6077580;23;20419;-71
2023/07/10 04:17:07;;;;;;;38.85;29.67;;;18.70;99.90;;;;;;6100654;23;20021;-71
2023/07/10 04:19:33;;;;;;;35.50;27.50;;;18.70;99.90;;;;;;6100958;23;20018;-71
2023/07/10 04:21:59;;;;;;;37.63;29.20;;;18.70;99.90;;;;;;6100741;23;20029;-71
2023/07/10 04:24:24;;;;;;;34.20;27.08;;;18.70;99.90;;;;;;6100875;23;20033;-71
2023/07/10 04:26:50;;;;;;;46.33;30.00;;;18.70;99.90;;;;;;6077710;23;20322;-71
2023/07/10 04:29:17;;;;;;;39.40;28.60;;;18.70;99.90;;;;;;6100776;23;20021;-71
2023/07/10 04:31:43;;;;;;;33.30;25.85;;;18.80;99.90;;;;;;6101144;23;20137;-71
2023/07/10 04:34:09;;;;;;;34.80;26.42;;;18.70;99.90;;;;;;6126123;23;20029;-72
2023/07/10 04:36:35;;;;;;;29.30;24.92;;;18.70;99.90;;;;;;6054049;23;20411;-71
2023/07/10 04:39:00;;;;;;;31.10;25.20;;;18.70;99.90;;;;;;6100964;23;20085;-71
2023/07/10 04:41:26;;;;;;;31.25;23.42;;;18.70;99.90;;;;;;6108858;23;20021;-71
2023/07/10 04:43:52;;;;;;;30.42;24.67;;;18.70;99.90;;;;;;6124923;23;20022;-71
2023/07/10 04:46:19;;;;;;;32.85;25.10;;;18.70;99.90;;;;;;6126311;23;20076;-71
2023/07/10 04:48:46;;;;;;;29.17;24.77;;;18.80;99.90;;;;;;6125382;23;20578;-70
2023/07/10 04:51:13;;;;;;;34.33;25.02;;;18.70;99.90;;;;;;6124213;23;20080;-70
2023/07/10 04:53:39;;;;;;;29.50;23.45;;;18.70;99.90;;;;;;6125964;23;20021;-71
2023/07/10 04:56:06;;;;;;;31.15;25.35;;;18.70;99.90;;;;;;6124717;23;20021;-70
2023/07/10 04:58:49;;;;;;;30.23;23.58;;;18.70;99.90;;;;;;6124619;23;20026;-70
2023/07/10 05:01:15;;;;;;;27.73;22.42;;;18.70;99.90;;;;;;6101318;23;20040;-71
2023/07/10 05:03:41;;;;;;;27.92;23.48;;;18.70;99.90;;;;;;6128065;23;20029;-71
2023/07/10 05:06:07;;;;;;;31.20;23.73;;;18.70;99.90;;;;;;6079007;23;20333;-70
2023/07/10 05:08:32;;;;;;;29.15;22.88;;;18.70;99.90;;;;;;6128192;23;20021;-70
2023/07/10 05:10:58;;;;;;;26.25;20.40;;;18.70;99.90;;;;;;6127456;23;20018;-72
2023/07/10 05:13:28;;;;;;;28.48;22.92;;;18.70;99.90;;;;;;6128965;23;20053;-71
2023/07/10 05:15:55;;;;;;;27.35;21.55;;;18.70;99.90;;;;;;6127453;23;20093;-69
2023/07/10 05:18:21;;;;;;;20.20;17.20;;;18.70;99.90;;;;;;6128157;23;20018;-69
2023/07/10 05:20:48;;;;;;;22.33;18.88;;;18.70;99.90;;;;;;6126223;23;20026;-69
2023/07/10 05:23:15;;;;;;;24.95;20.17;;;18.60;99.90;;;;;;6127097;23;20026;-70
2023/07/10 05:25:53;;;;;;;21.92;17.30;;;18.60;99.90;;;;;;6126456;23;20061;-69
2023/07/10 05:28:19;;;;;;;25.50;19.88;;;18.70;99.90;;;;;;6128303;23;20278;-70
2023/07/10 05:30:45;;;;;;;23.20;18.80;;;18.60;99.90;;;;;;6128487;23;20029;-70
2023/07/10 05:33:11;;;;;;;24.17;20.35;;;18.60;99.90;;;;;;6126229;23;20013;-70
2023/07/10 05:35:36;;;;;;;23.38;18.63;;;18.60;99.90;;;;;;6125841;23;20070;-69
2023/07/10 05:38:02;;;;;;;19.67;17.55;;;18.70;99.90;;;;;;6125908;23;20026;-70
2023/07/10 05:40:28;;;;;;;22.35;19.05;;;18.70;99.90;;;;;;6128378;23;20516;-69
2023/07/10 05:42:53;;;;;;;21.75;17.88;;;18.70;99.90;;;;;;6127098;23;20089;-69
2023/07/10 05:45:19;;;;;;;25.52;17.40;;;18.70;99.90;;;;;;6102038;23;20062;-70
2023/07/10 05:47:45;;;;;;;21.00;17.95;;;18.70;99.90;;;;;;6077622;23;20028;-69
2023/07/10 05:50:11;;;;;;;21.48;17.25;;;18.70;99.90;;;;;;6077074;23;20014;-69
2023/07/10 05:52:36;;;;;;;20.73;18.35;;;18.70;99.90;;;;;;6128638;23;20017;-70
2023/07/10 05:55:02;;;;;;;21.95;17.50;;;18.70;99.90;;;;;;6101502;23;20460;-70
2023/07/10 05:57:28;;;;;;;19.27;16.75;;;18.70;99.90;;;;;;6129157;23;20033;-70
2023/07/10 05:59:54;;;;;;;18.70;16.02;;;18.70;99.90;;;;;;6127602;23;20026;-70
2023/07/10 06:02:19;;;;;;;20.48;16.30;;;18.70;99.90;;;;;;6128736;23;20414;-70
2023/07/10 06:04:45;;;;;;;20.23;16.88;;;18.80;99.90;;;;;;6078013;23;20070;-69
2023/07/10 06:07:11;;;;;;;19.98;17.55;;;18.80;99.90;;;;;;6128070;23;20017;-70
2023/07/10 06:09:36;;;;;;;21.80;16.48;;;18.80;99.90;;;;;;6128800;23;20062;-69
2023/07/10 06:12:02;;;;;;;20.58;17.17;;;18.90;99.90;;;;;;6127649;23;20017;-68
2023/07/10 06:14:28;;;;;;;19.33;15.98;;;18.90;99.90;;;;;;6102997;23;20049;-70
2023/07/10 06:16:54;;;;;;;20.67;15.88;;;18.90;99.90;;;;;;6127370;23;20022;-70
2023/07/10 06:19:20;;;;;;;18.83;15.13;;;19.00;99.90;;;;;;6055027;23;20595;-69
2023/07/10 06:21:46;;;;;;;18.20;15.10;;;19.00;99.90;;;;;;6078172;23;20018;-70
2023/07/10 06:24:12;;;;;;;13.15;10.95;;;19.00;99.90;;;;;;6128112;23;20049;-70
2023/07/10 06:26:37;;;;;;;17.00;11.77;;;19.00;99.90;;;;;;6127967;23;20070;-70
2023/07/10 06:29:03;;;;;;;15.63;10.85;;;19.00;99.90;;;;;;6127623;23;20037;-69
2023/07/10 06:31:29;;;;;;;10.95;9.70;;;19.00;99.90;;;;;;6078383;23;20026;-70
2023/07/10 06:33:54;;;;;;;14.30;10.55;;;19.00;99.90;;;;;;6101226;23;20021;-69
2023/07/10 06:36:20;;;;;;;13.23;8.77;;;19.00;99.90;;;;;;6103048;23;20245;-69
2023/07/10 06:38:46;;;;;;;12.75;8.95;;;19.10;99.90;;;;;;6099909;23;20446;-70
2023/07/10 06:41:12;;;;;;;12.98;8.13;;;19.10;99.90;;;;;;6082850;23;20102;-70
2023/07/10 06:43:38;;;;;;;11.70;7.53;;;19.10;99.90;;;;;;6101320;23;20014;-70
2023/07/10 06:46:04;;;;;;;11.52;7.18;;;19.00;99.90;;;;;;6125048;23;20024;-70
2023/07/10 06:48:29;;;;;;;8.60;6.97;;;19.10;99.90;;;;;;6124959;23;20366;-70
2023/07/10 06:50:56;;;;;;;10.95;6.97;;;19.10;99.90;;;;;;6121750;23;20025;-70
2023/07/10 06:53:23;;;;;;;9.98;6.57;;;19.10;99.90;;;;;;6124522;23;20057;-70
2023/07/10 06:55:53;;;;;;;11.57;6.63;;;19.10;99.90;;;;;;6124898;23;20025;-69
2023/07/10 06:58:19;;;;;;;12.75;6.90;;;19.20;99.90;;;;;;6126292;23;20026;-70
2023/07/10 07:00:45;;;;;;;7.68;6.00;;;19.20;99.90;;;;;;6099663;23;20053;-69
2023/07/10 07:03:10;;;;;;;6.22;5.47;;;19.20;99.90;;;;;;6125118;23;20118;-70
2023/07/10 07:05:36;;;;;;;9.77;5.82;;;19.20;99.90;;;;;;6126072;23;20533;-70
2023/07/10 07:08:02;;;;;;;12.63;6.47;;;19.20;99.90;;;;;;6125403;23;20018;-70
2023/07/10 07:10:29;;;;;;;9.15;5.75;;;19.30;99.90;;;;;;6127379;23;20022;-68
2023/07/10 07:12:55;;;;;;;7.05;4.88;;;19.40;99.90;;;;;;6125725;23;20049;-70
2023/07/10 07:15:20;;;;;;;8.38;5.18;;;19.40;99.90;;;;;;6126369;23;20022;-70
2023/07/10 07:17:46;;;;;;;8.27;5.32;;;19.40;99.90;;;;;;6127555;23;20018;-70
2023/07/10 07:20:12;;;;;;;12.35;5.55;;;19.40;99.90;;;;;;6125282;23;20097;-70
2023/07/10 07:22:37;;;;;;;8.60;4.88;;;19.50;99.90;;;;;;6127700;23;20014;-70
2023/07/10 07:25:03;;;;;;;7.45;5.20;;;19.70;99.90;;;;;;6126668;23;20021;-70
2023/07/10 07:27:31;;;;;;;9.27;4.57;;;19.90;99.90;;;;;;6126616;23;20017;-70
2023/07/10 07:29:57;;;;;;;10.70;4.72;;;20.10;99.90;;;;;;6125195;23;20098;-70
2023/07/10 07:32:23;;;;;;;7.55;4.13;;;20.10;99.90;;;;;;6127258;23;20018;-70
2023/07/10 07:34:49;;;;;;;10.35;4.88;;;20.20;99.90;;;;;;6126886;23;20467;-70
2023/07/10 07:37:16;;;;;;;7.18;3.97;;;20.30;99.90;;;;;;6125679;23;20356;-70
2023/07/10 07:39:41;;;;;;;8.75;4.13;;;20.30;99.90;;;;;;6127407;23;20025;-70
2023/07/10 07:42:09;;;;;;;10.20;4.05;;;20.40;99.90;;;;;;6126532;23;20490;-70
2023/07/10 07:44:34;;;;;;;7.40;3.80;;;20.50;99.90;;;;;;6127977;23;20029;-70
2023/07/10 07:47:00;;;;;;;8.57;4.18;;;20.60;99.90;;;;;;6127077;23;20018;-70
2023/07/10 07:49:26;;;;;;;11.68;3.50;;;20.70;99.90;;;;;;6127580;23;20018;-70
2023/07/10 07:51:52;;;;;;;10.05;3.60;;;20.80;99.90;;;;;;6100719;23;20022;-71
2023/07/10 07:54:18;;;;;;;6.82;3.33;;;20.80;99.90;;;;;;6126383;23;20018;-70
2023/07/10 07:56:44;;;;;;;6.13;3.65;;;20.90;99.90;;;;;;6076888;23;20053;-70
2023/07/10 07:59:10;;;;;;;8.18;3.17;;;20.90;99.90;;;;;;6100111;23;20022;-70
2023/07/10 08:01:35;;;;;;;7.05;3.38;;;21.00;99.90;;;;;;6127857;23;20082;-70
2023/07/10 08:04:01;;;;;;;7.32;3.55;;;21.10;99.90;;;;;;6100678;23;20022;-70
2023/07/10 08:06:32;;;;;;;8.15;3.25;;;21.20;99.90;;;;;;6127276;23;20073;-70
2023/07/10 08:08:58;;;;;;;6.57;3.35;;;21.30;99.90;;;;;;6100229;23;20073;-70
2023/07/10 08:11:24;;;;;;;7.28;2.75;;;21.50;99.90;;;;;;6076416;23;20025;-70
2023/07/10 08:13:50;;;;;;;8.77;3.13;;;21.50;99.90;;;;;;6126225;23;20495;-70
2023/07/10 08:16:16;;;;;;;9.82;3.20;;;21.60;99.90;;;;;;6126539;23;20041;-70
2023/07/10 08:18:42;;;;;;;7.05;3.28;;;21.60;99.90;;;;;;6100701;23;20022;-70
2023/07/10 08:21:14;;;;;;;6.55;3.13;;;21.70;99.90;;;;;;6126028;23;20069;-70
2023/07/10 08:23:41;;;;;;;5.47;3.30;;;21.70;99.90;;;;;;6100366;23;20076;-69
2023/07/10 08:26:07;;;;;;;5.55;2.97;;;21.70;99.90;;;;;;6124796;23;20022;-69
2023/07/10 08:28:33;;;;;;;6.15;3.03;;;21.80;99.90;;;;;;6100239;23;20036;-70
2023/07/10 08:30:59;;;;;;;6.65;3.10;;;21.90;99.90;;;;;;6100061;23;20018;-69
2023/07/10 08:33:26;;;;;;;5.03;2.85;;;22.00;99.90;;;;;;6075411;23;20077;-69
2023/07/10 08:35:55;;;;;;;6.85;3.38;;;22.00;99.90;;;;;;6126333;23;20018;-70
2023/07/10 08:38:21;;;;;;;8.18;2.90;;;22.10;99.90;;;;;;6125821;23;20025;-69
2023/07/10 08:40:50;;;;;;;9.13;3.13;;;22.10;99.90;;;;;;6126569;23;20022;-69
2023/07/10 08:43:38;;;;;;;7.32;3.05;;;22.10;99.90;;;;;;6076455;23;20014;-69
2023/07/10 08:46:14;;;;;;;8.63;3.60;;;22.10;99.90;;;;;;6099450;23;20128;-70
2023/07/10 08:49:01;;;;;;;11.45;3.20;;;22.10;99.90;;;;;;6101063;23;20026;-69
2023/07/10 08:51:34;;;;;;;7.25;2.80;;;22.20;99.90;;;;;;6099818;23;20014;-69
2023/07/10 08:54:12;;;;;;;7.05;3.15;;;22.30;99.90;;;;;;6099951;23;20085;-69
2023/07/10 08:56:38;;;;;;;3.67;2.50;;;22.40;99.90;;;;;;6126634;23;20018;-69
2023/07/10 08:59:17;;;;;;;6.82;2.70;;;22.40;99.90;;;;;;6099557;23;20033;-69
2023/07/10 09:01:49;;;;;;;6.65;2.90;;;22.50;99.90;;;;;;6101327;23;20014;-69
2023/07/10 09:04:17;;;;;;;7.32;2.40;;;22.60;99.90;;;;;;6076038;23;20026;-69
2023/07/10 09:06:52;;;;;;;9.25;2.58;;;22.60;99.90;;;;;;6100853;23;20025;-69
2023/07/10 09:09:21;;;;;;;5.80;2.45;;;22.70;99.90;;;;;;6077164;23;20026;-69
2023/07/10 09:11:48;;;;;;;7.68;2.58;;;22.60;99.90;;;;;;6126291;23;20022;-69
2023/07/10 09:14:47;;;;;;;8.30;2.47;;;22.70;99.90;;;;;;6126004;23;20026;-69
2023/07/10 09:17:21;;;;;;;8.52;2.65;;;22.80;99.90;;;;;;6126204;23;20013;-69
2023/07/10 09:19:52;;;;;;;7.43;3.15;;;22.80;99.90;;;;;;6125968;23;20026;-69
2023/07/10 09:22:17;;;;;;;8.07;3.03;;;22.80;99.90;;;;;;6100605;23;20025;-68
2023/07/10 09:24:43;;;;;;;5.22;2.53;;;22.90;99.90;;;;;;6126145;23;20022;-69
2023/07/10 09:27:12;;;;;;;6.10;2.78;;;23.10;99.90;;;;;;6127533;23;20026;-69
2023/07/10 09:29:39;;;;;;;8.30;2.55;;;23.20;99.90;;;;;;6126126;23;20018;-69
2023/07/10 09:32:11;;;;;;;5.38;2.45;;;23.30;99.90;;;;;;6076979;23;20026;-69
2023/07/10 09:34:45;;;;;;;7.60;2.75;;;23.60;99.90;;;;;;6100534;23;20026;-69
2023/07/10 09:37:14;;;;;;;7.82;3.20;;;23.60;99.90;;;;;;6126248;23;20021;-68
2023/07/10 09:39:40;;;;;;;5.93;2.78;;;23.60;99.90;;;;;;6100398;23;20025;-69
2023/07/10 09:42:13;;;;;;;7.35;2.55;;;23.60;99.90;;;;;;6116147;23;20044;-69
2023/07/10 09:44:46;;;;;;;6.15;2.38;;;23.50;99.90;;;;;;6127920;23;20030;-68
2023/07/10 09:47:14;;;;;;;5.85;2.60;;;23.30;99.90;;;;;;6125075;23;20053;-69
2023/07/10 09:49:47;;;;;;;6.95;2.90;;;23.20;99.90;;;;;;6128364;23;20192;-68
2023/07/10 09:52:29;;;;;;;5.93;2.45;;;23.00;99.90;;;;;;6126272;23;20026;-69
2023/07/10 09:55:13;;;;;;;7.07;2.95;;;23.00;99.90;;;;;;6127637;23;20022;-69
2023/07/10 09:58:00;;;;;;;7.78;2.47;;;23.00;99.90;;;;;;6127134;23;20025;-69
2023/07/10 10:00:26;;;;;;;7.10;2.33;;;23.10;99.90;;;;;;6127754;23;20060;-69
2023/07/10 10:03:02;;;;;;;5.53;2.85;;;23.20;99.90;;;;;;6127650;23;20026;-68
2023/07/10 10:05:28;;;;;;;7.70;2.90;;;23.30;99.90;;;;;;6103561;23;20360;-69
2023/07/10 10:08:04;;;;;;;7.28;2.50;;;23.50;99.90;;;;;;6127671;23;20032;-68
2023/07/10 10:10:31;;;;;;;5.78;2.40;;;23.70;99.90;;;;;;6126302;23;20050;-69
2023/07/10 10:13:12;;;;;;;8.02;2.70;;;23.70;99.90;;;;;;6125444;23;20026;-70
2023/07/10 10:15:49;;;;;;;9.18;3.10;;;23.80;99.90;;;;;;6125202;23;20097;-69
2023/07/10 10:18:50;;;;;;;9.10;3.33;;;23.80;99.90;;;;;;6127847;23;20030;-68
2023/07/10 10:21:18;;;;;;;7.32;2.78;;;23.70;99.90;;;;;;6126105;23;20032;-69
2023/07/10 10:23:46;;;;;;;7.53;2.75;;;23.60;99.90;;;;;;6126728;23;20081;-69
2023/07/10 10:26:36;;;;;;;6.60;2.60;;;23.70;99.90;;;;;;6127303;23;20061;-69
2023/07/10 10:29:05;;;;;;;7.07;2.55;;;23.90;99.90;;;;;;6125625;23;20021;-69
2023/07/10 10:31:38;;;;;;;7.97;3.30;;;24.00;99.90;;;;;;6128656;23;20055;-68
2023/07/10 10:34:27;;;;;;;8.63;3.08;;;24.10;99.90;;;;;;6127040;23;20029;-69
2023/07/10 10:37:20;;;;;;;7.95;2.72;;;24.20;99.90;;;;;;6101109;23;20014;-69
2023/07/10 10:39:58;;;;;;;6.88;2.75;;;23.90;99.90;;;;;;6101143;23;20036;-69
2023/07/10 10:42:28;;;;;;;6.82;2.72;;;23.50;99.90;;;;;;6125340;23;20406;-69
2023/07/10 10:45:15;;;;;;;8.00;2.30;;;23.40;99.90;;;;;;6128491;23;20025;-69
2023/07/10 10:48:10;;;;;;;9.02;2.67;;;23.50;99.90;;;;;;6127988;23;20540;-68
2023/07/10 10:51:10;;;;;;;5.43;2.63;;;23.80;99.90;;;;;;6109107;23;20466;-69
2023/07/10 10:54:09;;;;;;;7.47;2.78;;;24.20;99.90;;;;;;6126412;23;20044;-69
2023/07/10 10:56:48;;;;;;;6.80;2.60;;;24.30;99.90;;;;;;6125741;23;20029;-69
2023/07/10 10:59:16;;;;;;;8.48;2.60;;;24.40;99.90;;;;;;6126233;23;20018;-69
2023/07/10 11:01:50;;;;;;;7.65;2.63;;;24.40;99.90;;;;;;6126239;23;20028;-69
2023/07/10 11:04:44;;;;;;;6.03;2.30;;;24.60;99.90;;;;;;6127759;23;20018;-69
2023/07/10 11:07:22;;;;;;;7.50;2.47;;;24.70;99.90;;;;;;6127311;23;20231;-69
2023/07/10 11:10:10;;;;;;;8.18;2.25;;;24.60;99.90;;;;;;6127803;23;20027;-68
2023/07/10 11:12:37;;;;;;;6.82;2.40;;;24.50;99.90;;;;;;6126955;23;20022;-69
2023/07/10 11:15:17;;;;;;;7.20;2.63;;;24.50;99.90;;;;;;6127959;23;20057;-69
2023/07/10 11:17:50;;;;;;;7.88;2.50;;;24.60;99.90;;;;;;6126589;23;20025;-70
2023/07/10 11:20:17;;;;;;;8.68;2.50;;;24.50;99.90;;;;;;6124379;23;20056;-68
2023/07/10 11:22:57;;;;;;;7.95;2.40;;;24.40;99.90;;;;;;6126833;23;20014;-68
2023/07/10 11:25:44;;;;;;;10.85;2.80;;;24.40;99.90;;;;;;6099993;23;20036;-69
2023/07/10 11:28:22;;;;;;;7.32;2.50;;;24.50;99.90;;;;;;6125732;23;20141;-68
2023/07/10 11:31:11;;;;;;;9.27;3.05;;;24.40;99.90;;;;;;6125479;23;20022;-68
2023/07/10 11:33:37;;;;;;;5.07;2.22;;;24.30;99.90;;;;;;6126349;23;20029;-68
2023/07/10 11:36:18;;;;;;;9.88;2.45;;;24.50;99.90;;;;;;6127797;23;20073;-68
2023/07/10 11:39:05;;;;;;;8.82;2.33;;;24.70;99.90;;;;;;6124003;23;20036;-68
2023/07/10 11:41:36;;;;;;;5.80;2.42;;;24.50;99.90;;;;;;6125756;23;20037;-69
2023/07/10 11:44:14;;;;;;;6.90;2.20;;;24.40;99.90;;;;;;6127443;23;20025;-68
2023/07/10 11:47:01;;;;;;;3.85;1.55;;;24.20;99.90;;;;;;6076341;23;20049;-69
2023/07/10 11:49:48;;;;;;;3.97;1.85;;;24.00;99.90;;;;;;6101137;23;20077;-68
2023/07/10 11:52:14;;;;;;;3.08;1.70;;;23.80;99.90;;;;;;6124230;23;20828;-69
2023/07/10 11:54:41;;;;;;;5.22;2.10;;;23.60;99.90;;;;;;6099504;23;20053;-68
2023/07/10 11:57:11;;;;;;;5.13;2.10;;;23.60;99.90;;;;;;6101513;23;20057;-68
2023/07/10 11:59:45;;;;;;;7.20;1.90;;;23.70;99.90;;;;;;6100388;23;20029;-67
2023/07/10 12:02:16;;;;;;;5.97;2.45;;;24.10;99.90;;;;;;6101525;23;20017;-68
2023/07/10 12:04:42;;;;;;;9.63;3.08;;;24.40;99.90;;;;;;6100119;23;20086;-68
2023/07/10 12:07:11;;;;;;;4.55;2.20;;;24.60;99.90;;;;;;6100431;23;20025;-69
2023/07/10 12:09:37;;;;;;;7.57;2.45;;;24.80;99.90;;;;;;6100476;23;20018;-68
2023/07/10 12:12:03;;;;;;;4.13;2.05;;;25.00;99.90;;;;;;6076494;23;20025;-68
2023/07/10 12:14:30;;;;;;;4.90;1.83;;;25.10;99.90;;;;;;6054001;23;20064;-68
2023/07/10 12:16:58;;;;;;;9.32;2.03;;;25.10;99.90;;;;;;6077254;23;20014;-67
2023/07/10 12:19:33;;;;;;;5.35;1.70;;;25.20;99.90;;;;;;6100585;23;20048;-68
2023/07/10 12:22:16;;;;;;;6.70;1.80;;;25.30;99.90;;;;;;6127002;23;20033;-68
2023/07/10 12:24:55;;;;;;;6.90;1.67;;;25.20;99.90;;;;;;6126344;23;20026;-68
2023/07/10 12:27:22;;;;;;;5.68;1.98;;;25.30;99.90;;;;;;6101485;23;20026;-68
2023/07/10 12:29:53;;;;;;;4.45;2.00;;;25.40;99.90;;;;;;6100149;23;20014;-68
2023/07/10 12:32:21;;;;;;;6.18;2.15;;;25.50;99.90;;;;;;6127521;23;20053;-68
2023/07/10 12:34:47;;;;;;;7.50;1.77;;;25.50;99.90;;;;;;6100924;23;20395;-68
2023/07/10 12:37:15;;;;;;;5.97;1.88;;;25.50;99.90;;;;;;6126328;23;20065;-68
2023/07/10 12:39:42;;;;;;;4.32;1.73;;;25.40;99.90;;;;;;6127054;23;20520;-67
2023/07/10 12:42:34;;;;;;;3.22;1.70;;;25.60;99.90;;;;;;6126086;23;20022;-67
2023/07/10 12:45:08;;;;;;;7.70;2.05;;;25.60;99.90;;;;;;6127475;23;20080;-69
2023/07/10 12:47:34;;;;;;;6.68;1.73;;;25.70;99.90;;;;;;6100685;23;20037;-70
2023/07/10 12:50:01;;;;;;;6.35;1.88;;;25.70;99.90;;;;;;6099941;23;20483;-69